Evergreen, AL

1:56 PM CDT on July 30, 2014 (GMT -0500)
Greenville Municipal (KPRN) Elev 449 ft | 31.85 °N, 86.61 °W | Change Station

Current weather conditions updated 1 hour ago

Clear
Clear
82 °F
Feels Like 82 °F
N
10
Wind Variable Wind from North
Gusts 16 mph

Today is forecast to be nearly the same temperature as yesterday.

Today
High -- | Low -- °F
--% Chance of Precip.
Yesterday
High -- | Low -- °F
Precip. -- in
6:02 AM 7:45 PM
Waxing Crescent, 13% visible
Pressure 30.03 in
Visibility 10.0 miles
Clouds Clear
Dew Point 51 °F
Humidity 34%
Rainfall 0.00 in
Snow Depth Not available.
UV 13 out of 12
Pollen 5.50 out of 12
Air Quality Not available.
Flu Activity Not available.
METAR KPRN 301756Z AUTO 36009G14KT 10SM CLR 28/11 A3005 RMK AO2 SLP169 T02780106 10278 20161 58008

More Conditions Fewer Conditions

Pressure 30.03 in
Visibility 10.0 miles
Clouds Clear
Dew Point 51 °F
Humidity 34%
Rainfall 0.00 in
Snow Depth Not available.
UV 13 out of 12
Pollen 5.50 out of 12
Air Quality Not available.
Flu Activity Not available.
METAR KPRN 301756Z AUTO 36009G14KT 10SM CLR 28/11 A3005 RMK AO2 SLP169 T02780106 10278 20161 58008

More Conditions Fewer Conditions

10-Day Weather Forecast

Almanac

Astronomy

Jul. 30, 2014 Rise Set
Actual Time 6:02 AM CDT 7:45 PM CDT
Civil Twilight 5:36 AM CDT 8:11 PM CDT
Nautical Twilight 5:04 AM CDT 8:43 PM CDT
Astronomical Twilight 4:30 AM CDT 9:17 PM CDT
Moon 9:17 AM CDT 9:45 PM CDT
Length of Visible Light 14h 35m
Length of Day
13h 42m
Tomorrow will be 1m 23s shorter.
Waxing Crescent, 13% of the Moon is Illuminated
Today
Waxing Crescent
Aug 3
First Quarter
Aug 10
Full
Aug 17
Last Quarter
Aug 25
New

Today's Extremes

State Highs State Lows

Community

WunderPhotos

Upload Photos

1,739,152 photos uploaded!

WunderBlogs® & News

Nearby

Snow Depth

Station Depth Elevation
No new snow has been reported.

Earthquake Activity

City Distance Mag. Time & Date
No recent earthquake activity has been reported nearby.
Minimum magnitude displayed is 2.5.

Coastal Water Temperatures

Place Temperature
No Stations Reporting

Nearby Weather Stations

Station Location Temp. Heat Index Dew Point Humidity Wind Precip. Elev Updated Type
Red Level, Red Level, AL 85.3 °F 85 °F 60 °F 42% SW  at  1.0 mph 0.00 in / hr 345 ft 1:45 PM CDT Normal
HCN BREWTON 3 NNE AL , Brewton, AL 81 °F 79 °F - - North  at  - 0.00 in / hr 170 ft 12:40 PM CDT MADIS

Show More Stations Show Fewer Stations